sensor_id;sensor_type;location;lat;lon;timestamp;pressure;altitude;pressure_sealevel;temperature;humidity
78643;BME280;67954;47.618;17.606;2023-06-22T00:00:20;100531.44;;;22.67;70.60
78643;BME280;67954;47.618;17.606;2023-06-22T00:00:53;100529.94;;;22.71;69.79
78643;BME280;67954;47.618;17.606;2023-06-22T00:01:25;100530.53;;;22.73;69.84
78643;BME280;67954;47.618;17.606;2023-06-22T00:01:56;100533.28;;;22.73;69.84
78643;BME280;67954;47.618;17.606;2023-06-22T00:02:26;100533.75;;;22.70;70.05
78643;BME280;67954;47.618;17.606;2023-06-22T00:02:58;100532.94;;;22.63;70.84
78643;BME280;67954;47.618;17.606;2023-06-22T00:03:29;100532.75;;;22.58;70.52
78643;BME280;67954;47.618;17.606;2023-06-22T00:04:00;100535.31;;;22.53;70.20
78643;BME280;67954;47.618;17.606;2023-06-22T00:04:32;100532.13;;;22.56;71.16
78643;BME280;67954;47.618;17.606;2023-06-22T00:05:03;100538.66;;;22.55;70.69
78643;BME280;67954;47.618;17.606;2023-06-22T00:05:34;100533.13;;;22.61;70.88
78643;BME280;67954;47.618;17.606;2023-06-22T00:06:06;100534.41;;;22.65;70.17
78643;BME280;67954;47.618;17.606;2023-06-22T00:06:37;100531.44;;;22.67;70.64
78643;BME280;67954;47.618;17.606;2023-06-22T00:07:09;100520.91;;;22.64;70.30
78643;BME280;67954;47.618;17.606;2023-06-22T00:07:40;100527.63;;;22.68;69.79
78643;BME280;67954;47.618;17.606;2023-06-22T00:08:11;100523.00;;;22.68;70.54
78643;BME280;67954;47.618;17.606;2023-06-22T00:08:43;100523.00;;;22.68;70.52
78643;BME280;67954;47.618;17.606;2023-06-22T00:09:14;100525.53;;;22.70;70.63
78643;BME280;67954;47.618;17.606;2023-06-22T00:09:46;100520.88;;;22.70;70.33
78643;BME280;67954;47.618;17.606;2023-06-22T00:10:18;100527.44;;;22.69;70.05
78643;BME280;67954;47.618;17.606;2023-06-22T00:10:49;100513.72;;;22.69;70.56
78643;BME280;67954;47.618;17.606;2023-06-22T00:11:20;100525.75;;;22.68;69.99
78643;BME280;67954;47.618;17.606;2023-06-22T00:11:52;100520.66;;;22.72;70.64
78643;BME280;67954;47.618;17.606;2023-06-22T00:12:22;100525.91;;;22.73;70.03
78643;BME280;67954;47.618;17.606;2023-06-22T00:12:53;100519.59;;;22.73;70.06
78643;BME280;67954;47.618;17.606;2023-06-22T00:13:24;100529.41;;;22.49;70.65
78643;BME280;67954;47.618;17.606;2023-06-22T00:13:56;100519.31;;;22.50;71.55
78643;BME280;67954;47.618;17.606;2023-06-22T00:14:27;100510.25;;;22.49;70.68
78643;BME280;67954;47.618;17.606;2023-06-22T00:14:57;100518.66;;;22.54;71.16
78643;BME280;67954;47.618;17.606;2023-06-22T00:15:30;100514.44;;;22.58;70.83
78643;BME280;67954;47.618;17.606;2023-06-22T00:16:00;100518.44;;;22.56;71.33
78643;BME280;67954;47.618;17.606;2023-06-22T00:16:33;100515.59;;;22.37;71.63
78643;BME280;67954;47.618;17.606;2023-06-22T00:17:04;100511.56;;;22.40;71.61
78643;BME280;67954;47.618;17.606;2023-06-22T00:17:34;100511.31;;;22.48;71.49
78643;BME280;67954;47.618;17.606;2023-06-22T00:18:06;100516.78;;;22.48;71.18
78643;BME280;67954;47.618;17.606;2023-06-22T00:18:38;100515.78;;;22.42;71.55
78643;BME280;67954;47.618;17.606;2023-06-22T00:19:08;100519.97;;;22.45;71.42
78643;BME280;67954;47.618;17.606;2023-06-22T00:19:42;100503.94;;;22.49;70.71
78643;BME280;67954;47.618;17.606;2023-06-22T00:20:14;100516.13;;;22.53;70.80
78643;BME280;67954;47.618;17.606;2023-06-22T00:20:45;100511.50;;;22.53;71.18
78643;BME280;67954;47.618;17.606;2023-06-22T00:21:16;100512.75;;;22.57;70.62
78643;BME280;67954;47.618;17.606;2023-06-22T00:21:51;100511.22;;;22.61;70.76
78643;BME280;67954;47.618;17.606;2023-06-22T00:22:23;100515.66;;;22.62;70.17
78643;BME280;67954;47.618;17.606;2023-06-22T00:22:59;100509.59;;;22.54;70.68
78643;BME280;67954;47.618;17.606;2023-06-22T00:23:32;100502.03;;;22.49;71.04
78643;BME280;67954;47.618;17.606;2023-06-22T00:24:05;100505.91;;;22.35;71.48
78643;BME280;67954;47.618;17.606;2023-06-22T00:24:36;100495.66;;;22.24;72.32
78643;BME280;67954;47.618;17.606;2023-06-22T00:25:11;100500.47;;;22.28;72.24
78643;BME280;67954;47.618;17.606;2023-06-22T00:25:42;100498.31;;;22.37;71.00
78643;BME280;67954;47.618;17.606;2023-06-22T00:26:13;100504.00;;;22.42;70.94
78643;BME280;67954;47.618;17.606;2023-06-22T00:26:45;100500.81;;;22.45;70.92
78643;BME280;67954;47.618;17.606;2023-06-22T00:27:16;100496.19;;;22.45;70.81
78643;BME280;67954;47.618;17.606;2023-06-22T00:27:47;100491.75;;;22.44;70.65
78643;BME280;67954;47.618;17.606;2023-06-22T00:28:19;100490.50;;;22.40;71.15
78643;BME280;67954;47.618;17.606;2023-06-22T00:28:50;100493.50;;;22.32;72.26
78643;BME280;67954;47.618;17.606;2023-06-22T00:29:20;100494.00;;;22.16;72.13
78643;BME280;67954;47.618;17.606;2023-06-22T00:29:52;100493.38;;;22.14;72.25
78643;BME280;67954;47.618;17.606;2023-06-22T00:30:23;100502.03;;;22.11;72.20
78643;BME280;67954;47.618;17.606;2023-06-22T00:30:54;100498.88;;;22.07;72.93
78643;BME280;67954;47.618;17.606;2023-06-22T00:31:26;100507.13;;;21.88;73.78
78643;BME280;67954;47.618;17.606;2023-06-22T00:31:57;100500.59;;;21.82;73.23
78643;BME280;67954;47.618;17.606;2023-06-22T00:32:27;100495.56;;;21.92;73.48
78643;BME280;67954;47.618;17.606;2023-06-22T00:32:59;100499.72;;;21.95;72.68
78643;BME280;67954;47.618;17.606;2023-06-22T00:33:30;100503.31;;;22.02;72.49
78643;BME280;67954;47.618;17.606;2023-06-22T00:34:01;100506.88;;;22.09;72.00
78643;BME280;67954;47.618;17.606;2023-06-22T00:34:33;100509.38;;;22.17;72.06
78643;BME280;67954;47.618;17.606;2023-06-22T00:35:05;100497.75;;;22.22;72.44
78643;BME280;67954;47.618;17.606;2023-06-22T00:35:35;100495.44;;;22.25;71.43
78643;BME280;67954;47.618;17.606;2023-06-22T00:36:07;100500.25;;;22.30;71.45
78643;BME280;67954;47.618;17.606;2023-06-22T00:36:38;100510.16;;;22.24;71.99
78643;BME280;67954;47.618;17.606;2023-06-22T00:37:11;100519.84;;;22.27;72.19
78643;BME280;67954;47.618;17.606;2023-06-22T00:37:43;100504.28;;;22.27;71.10
78643;BME280;67954;47.618;17.606;2023-06-22T00:38:14;100505.94;;;22.28;71.66
78643;BME280;67954;47.618;17.606;2023-06-22T00:38:44;100504.47;;;22.32;71.67
78643;BME280;67954;47.618;17.606;2023-06-22T00:39:16;100507.19;;;22.32;71.94
78643;BME280;67954;47.618;17.606;2023-06-22T00:39:47;100507.81;;;22.34;71.70
78643;BME280;67954;47.618;17.606;2023-06-22T00:40:20;100502.78;;;22.31;72.41
78643;BME280;67954;47.618;17.606;2023-06-22T00:40:52;100501.09;;;22.30;71.58
78643;BME280;67954;47.618;17.606;2023-06-22T00:41:23;100493.31;;;22.27;71.84
78643;BME280;67954;47.618;17.606;2023-06-22T00:41:59;100498.78;;;22.27;72.38
78643;BME280;67954;47.618;17.606;2023-06-22T00:42:30;100490.38;;;22.29;72.51
78643;BME280;67954;47.618;17.606;2023-06-22T00:43:01;100500.47;;;22.28;71.73
78643;BME280;67954;47.618;17.606;2023-06-22T00:43:32;100493.31;;;22.27;72.10
78643;BME280;67954;47.618;17.606;2023-06-22T00:44:04;100491.63;;;22.26;72.19
78643;BME280;67954;47.618;17.606;2023-06-22T00:44:35;100499.91;;;22.13;72.21
78643;BME280;67954;47.618;17.606;2023-06-22T00:45:07;100490.50;;;22.02;72.97
78643;BME280;67954;47.618;17.606;2023-06-22T00:45:38;100495.50;;;22.12;72.70
78643;BME280;67954;47.618;17.606;2023-06-22T00:46:09;100483.28;;;22.15;72.27
78643;BME280;67954;47.618;17.606;2023-06-22T00:46:40;100485.97;;;22.21;72.37
78643;BME280;67954;47.618;17.606;2023-06-22T00:47:14;100481.13;;;22.23;72.57
78643;BME280;67954;47.618;17.606;2023-06-22T00:47:46;100482.59;;;22.26;72.46
78643;BME280;67954;47.618;17.606;2023-06-22T00:48:18;100480.91;;;22.25;72.09
78643;BME280;67954;47.618;17.606;2023-06-22T00:48:50;100484.91;;;22.22;71.74
78643;BME280;67954;47.618;17.606;2023-06-22T00:49:22;100484.91;;;22.22;72.31
78643;BME280;67954;47.618;17.606;2023-06-22T00:49:53;100489.13;;;22.25;72.33
78643;BME280;67954;47.618;17.606;2023-06-22T00:50:26;100479.00;;;22.25;71.67
78643;BME280;67954;47.618;17.606;2023-06-22T00:50:58;100490.59;;;22.27;71.88
78643;BME280;67954;47.618;17.606;2023-06-22T00:51:29;100488.25;;;22.31;71.26
78643;BME280;67954;47.618;17.606;2023-06-22T00:52:01;100492.44;;;22.33;71.37
78643;BME280;67954;47.618;17.606;2023-06-22T00:52:33;100489.75;;;22.27;71.74
78643;BME280;67954;47.618;17.606;2023-06-22T00:53:09;100485.75;;;22.23;72.08
78643;BME280;67954;47.618;17.606;2023-06-22T00:53:42;100487.66;;;22.22;71.79
78643;BME280;67954;47.618;17.606;2023-06-22T00:54:13;100491.69;;;22.20;72.22
78643;BME280;67954;47.618;17.606;2023-06-22T00:54:44;100485.38;;;22.19;71.92
78643;BME280;67954;47.618;17.606;2023-06-22T00:55:17;100488.94;;;22.20;71.41
78643;BME280;67954;47.618;17.606;2023-06-22T00:55:49;100483.22;;;22.21;71.69
78643;BME280;67954;47.618;17.606;2023-06-22T00:56:23;100487.03;;;22.20;71.99
78643;BME280;67954;47.618;17.606;2023-06-22T00:56:57;100492.50;;;22.20;72.18
78643;BME280;67954;47.618;17.606;2023-06-22T00:57:28;100494.19;;;22.21;71.76
78643;BME280;67954;47.618;17.606;2023-06-22T00:57:59;100491.06;;;22.18;72.06
78643;BME280;67954;47.618;17.606;2023-06-22T00:58:30;100492.50;;;22.20;71.93
78643;BME280;67954;47.618;17.606;2023-06-22T00:59:02;100491.44;;;22.21;72.35
78643;BME280;67954;47.618;17.606;2023-06-22T00:59:34;100495.00;;;22.22;71.76
78643;BME280;67954;47.618;17.606;2023-06-22T01:00:06;100498.59;;;22.22;72.13
78643;BME280;67954;47.618;17.606;2023-06-22T01:00:51;100493.34;;;22.21;72.70
78643;BME280;67954;47.618;17.606;2023-06-22T01:01:22;100495.22;;;22.20;72.41
78643;BME280;67954;47.618;17.606;2023-06-22T01:01:54;100487.03;;;22.20;72.18
78643;BME280;67954;47.618;17.606;2023-06-22T01:02:25;100489.75;;;22.20;71.96
78643;BME280;67954;47.618;17.606;2023-06-22T01:02:56;100494.63;;;22.18;72.86
78643;BME280;67954;47.618;17.606;2023-06-22T01:03:28;100494.63;;;22.18;72.29
78643;BME280;67954;47.618;17.606;2023-06-22T01:03:59;100487.84;;;22.21;72.70
78643;BME280;67954;47.618;17.606;2023-06-22T01:04:35;100485.38;;;22.19;72.26
78643;BME280;67954;47.618;17.606;2023-06-22T01:05:07;100488.31;;;22.18;72.30
78643;BME280;67954;47.618;17.606;2023-06-22T01:05:39;100488.09;;;22.19;73.12
78643;BME280;67954;47.618;17.606;2023-06-22T01:06:16;100490.00;;;22.19;72.29
78643;BME280;67954;47.618;17.606;2023-06-22T01:06:57;100482.84;;;22.18;72.33
78643;BME280;67954;47.618;17.606;2023-06-22T01:07:39;100486.44;;;22.18;72.74
78643;BME280;67954;47.618;17.606;2023-06-22T01:08:22;100484.97;;;22.16;72.33
78643;BME280;67954;47.618;17.606;2023-06-22T01:09:02;100490.22;;;22.17;72.94
78643;BME280;67954;47.618;17.606;2023-06-22T01:09:44;100488.09;;;22.19;72.39
78643;BME280;67954;47.618;17.606;2023-06-22T01:10:23;100486.44;;;22.18;72.49
78643;BME280;67954;47.618;17.606;2023-06-22T01:11:05;100487.69;;;22.16;72.77
78643;BME280;67954;47.618;17.606;2023-06-22T01:11:42;100493.22;;;22.02;73.58
78643;BME280;67954;47.618;17.606;2023-06-22T01:12:18;100483.34;;;21.88;73.70
78643;BME280;67954;47.618;17.606;2023-06-22T01:12:53;100493.44;;;21.88;73.92
78643;BME280;67954;47.618;17.606;2023-06-22T01:13:30;100489.66;;;21.89;73.42
78643;BME280;67954;47.618;17.606;2023-06-22T01:14:10;100492.41;;;21.89;73.94
78643;BME280;67954;47.618;17.606;2023-06-22T01:14:49;100487.97;;;21.88;74.15
78643;BME280;67954;47.618;17.606;2023-06-22T01:15:31;100485.19;;;21.94;73.82
78643;BME280;67954;47.618;17.606;2023-06-22T01:16:08;100487.50;;;21.97;73.75
78643;BME280;67954;47.618;17.606;2023-06-22T01:16:43;100488.81;;;22.01;73.22
78643;BME280;67954;47.618;17.606;2023-06-22T01:17:15;100485.84;;;22.03;73.04
78643;BME280;67954;47.618;17.606;2023-06-22T01:17:49;100491.97;;;22.05;73.11
78643;BME280;67954;47.618;17.606;2023-06-22T01:18:22;100478.06;;;22.06;73.01
78643;BME280;67954;47.618;17.606;2023-06-22T01:18:59;100481.84;;;22.05;73.19
78643;BME280;67954;47.618;17.606;2023-06-22T01:19:39;100491.31;;;22.03;73.11
78643;BME280;67954;47.618;17.606;2023-06-22T01:20:15;100489.22;;;22.05;72.97
78643;BME280;67954;47.618;17.606;2023-06-22T01:20:47;100486.06;;;22.01;73.25
78643;BME280;67954;47.618;17.606;2023-06-22T01:21:22;100482.50;;;22.01;73.24
78643;BME280;67954;47.618;17.606;2023-06-22T01:21:55;100493.22;;;22.02;73.29
78643;BME280;67954;47.618;17.606;2023-06-22T01:22:30;100485.00;;;22.02;73.58
78643;BME280;67954;47.618;17.606;2023-06-22T01:23:15;100484.19;;;22.02;73.10
78643;BME280;67954;47.618;17.606;2023-06-22T01:24:04;100486.47;;;21.98;73.33
78643;BME280;67954;47.618;17.606;2023-06-22T01:24:50;100480.38;;;22.03;73.86
78643;BME280;67954;47.618;17.606;2023-06-22T01:25:31;100485.84;;;22.03;73.84
78643;BME280;67954;47.618;17.606;2023-06-22T01:26:13;100480.16;;;21.98;73.93
78643;BME280;67954;47.618;17.606;2023-06-22T01:26:57;100477.84;;;21.95;74.06
78643;BME280;67954;47.618;17.606;2023-06-22T01:27:40;100482.47;;;21.94;73.53
78643;BME280;67954;47.618;17.606;2023-06-22T01:28:33;100479.31;;;21.97;73.77
78643;BME280;67954;47.618;17.606;2023-06-22T01:29:08;100479.53;;;21.96;73.09
78643;BME280;67954;47.618;17.606;2023-06-22T01:29:44;100481.19;;;21.97;73.33
78643;BME280;67954;47.618;17.606;2023-06-22T01:30:17;100477.25;;;21.93;74.13
78643;BME280;67954;47.618;17.606;2023-06-22T01:30:49;100475.97;;;21.89;74.19
78643;BME280;67954;47.618;17.606;2023-06-22T01:31:32;100473.50;;;21.81;74.08
78643;BME280;67954;47.618;17.606;2023-06-22T01:32:06;100474.75;;;21.78;74.59
78643;BME280;67954;47.618;17.606;2023-06-22T01:32:39;100472.03;;;21.78;75.01
78643;BME280;67954;47.618;17.606;2023-06-22T01:33:13;100470.81;;;21.67;74.52
78643;BME280;67954;47.618;17.606;2023-06-22T01:33:48;100469.75;;;21.62;74.82
78643;BME280;67954;47.618;17.606;2023-06-22T01:34:21;100482.81;;;21.53;75.80
78643;BME280;67954;47.618;17.606;2023-06-22T01:34:54;100472.53;;;21.49;75.41
78643;BME280;67954;47.618;17.606;2023-06-22T01:35:25;100474.84;;;21.45;75.99
78643;BME280;67954;47.618;17.606;2023-06-22T01:35:57;100486.22;;;21.42;75.99
78643;BME280;67954;47.618;17.606;2023-06-22T01:36:30;100479.88;;;21.48;75.25
78643;BME280;67954;47.618;17.606;2023-06-22T01:37:03;100477.97;;;21.55;75.22
78643;BME280;67954;47.618;17.606;2023-06-22T01:37:37;100477.53;;;21.58;75.88
78643;BME280;67954;47.618;17.606;2023-06-22T01:38:09;100485.31;;;21.61;74.82
78643;BME280;67954;47.618;17.606;2023-06-22T01:38:42;100473.13;;;21.64;75.38
78643;BME280;67954;47.618;17.606;2023-06-22T01:39:15;100479.22;;;21.66;75.27
78643;BME280;67954;47.618;17.606;2023-06-22T01:39:47;100483.22;;;21.63;75.29
78643;BME280;67954;47.618;17.606;2023-06-22T01:40:19;100482.59;;;21.68;74.57
78643;BME280;67954;47.618;17.606;2023-06-22T01:40:54;100481.50;;;21.69;74.85
78643;BME280;67954;47.618;17.606;2023-06-22T01:41:27;100480.03;;;21.73;74.34
78643;BME280;67954;47.618;17.606;2023-06-22T01:41:59;100482.97;;;21.71;74.52
78643;BME280;67954;47.618;17.606;2023-06-22T01:42:32;100484.69;;;21.66;74.73
78643;BME280;67954;47.618;17.606;2023-06-22T01:43:05;100492.06;;;21.65;75.04
78643;BME280;67954;47.618;17.606;2023-06-22T01:43:38;100491.84;;;21.67;75.10
78643;BME280;67954;47.618;17.606;2023-06-22T01:44:10;100492.44;;;21.69;74.85
78643;BME280;67954;47.618;17.606;2023-06-22T01:44:43;100485.53;;;21.66;74.65
78643;BME280;67954;47.618;17.606;2023-06-22T01:45:15;100488.06;;;21.68;75.01
78643;BME280;67954;47.618;17.606;2023-06-22T01:45:48;100493.31;;;21.63;75.58
78643;BME280;67954;47.618;17.606;2023-06-22T01:46:19;100495.84;;;21.64;74.86
78643;BME280;67954;47.618;17.606;2023-06-22T01:46:52;100495.41;;;21.67;75.21
78643;BME280;67954;47.618;17.606;2023-06-22T01:47:24;100493.28;;;21.69;74.87
78643;BME280;67954;47.618;17.606;2023-06-22T01:47:56;100497.69;;;21.70;74.44
78643;BME280;67954;47.618;17.606;2023-06-22T01:48:28;100493.06;;;21.71;74.92
78643;BME280;67954;47.618;17.606;2023-06-22T01:49:01;100493.91;;;21.71;74.86
78643;BME280;67954;47.618;17.606;2023-06-22T01:49:33;100496.25;;;21.68;75.32
78643;BME280;67954;47.618;17.606;2023-06-22T01:50:05;100500.03;;;21.67;75.53
78643;BME280;67954;47.618;17.606;2023-06-22T01:50:37;100497.94;;;21.62;74.97
78643;BME280;67954;47.618;17.606;2023-06-22T01:51:08;100497.53;;;21.59;75.16
78643;BME280;67954;47.618;17.606;2023-06-22T01:51:39;100495.44;;;21.54;75.96
78643;BME280;67954;47.618;17.606;2023-06-22T01:52:11;100500.28;;;21.52;75.82
78643;BME280;67954;47.618;17.606;2023-06-22T01:52:42;100491.03;;;21.53;75.44
78643;BME280;67954;47.618;17.606;2023-06-22T01:53:13;100500.25;;;21.59;75.45
78643;BME280;67954;47.618;17.606;2023-06-22T01:53:45;100500.88;;;21.61;75.52
78643;BME280;67954;47.618;17.606;2023-06-22T01:54:18;100497.31;;;21.60;74.89
78643;BME280;67954;47.618;17.606;2023-06-22T01:54:49;100500.88;;;21.61;75.83
78643;BME280;67954;47.618;17.606;2023-06-22T01:55:20;100497.31;;;21.60;75.87
78643;BME280;67954;47.618;17.606;2023-06-22T01:55:51;100505.75;;;21.52;75.30
78643;BME280;67954;47.618;17.606;2023-06-22T01:56:22;100499.03;;;21.55;75.56
78643;BME280;67954;47.618;17.606;2023-06-22T01:56:55;100504.25;;;21.56;75.92
78643;BME280;67954;47.618;17.606;2023-06-22T01:57:26;100497.72;;;21.57;75.92
78643;BME280;67954;47.618;17.606;2023-06-22T01:57:57;100503.81;;;21.59;75.73
78643;BME280;67954;47.618;17.606;2023-06-22T01:58:30;100506.16;;;21.62;75.95
78643;BME280;67954;47.618;17.606;2023-06-22T01:59:21;100507.63;;;21.65;74.93
78643;BME280;67954;47.618;17.606;2023-06-22T02:00:00;100509.94;;;21.61;74.99
78643;BME280;67954;47.618;17.606;2023-06-22T02:00:34;100513.09;;;21.65;75.11
78643;BME280;67954;47.618;17.606;2023-06-22T02:01:11;100507.19;;;21.61;76.10
78643;BME280;67954;47.618;17.606;2023-06-22T02:01:45;100513.09;;;21.58;75.35
78643;BME280;67954;47.618;17.606;2023-06-22T02:02:20;100516.66;;;21.59;75.77
78643;BME280;67954;47.618;17.606;2023-06-22T02:03:01;100514.75;;;21.59;76.13
78643;BME280;67954;47.618;17.606;2023-06-22T02:03:35;100514.97;;;21.58;75.82
78643;BME280;67954;47.618;17.606;2023-06-22T02:04:13;100522.13;;;21.59;76.13
78643;BME280;67954;47.618;17.606;2023-06-22T02:04:48;100520.88;;;21.61;75.96
78643;BME280;67954;47.618;17.606;2023-06-22T02:05:24;100520.88;;;21.61;75.44
78643;BME280;67954;47.618;17.606;2023-06-22T02:06:03;100519.81;;;21.62;75.12
78643;BME280;67954;47.618;17.606;2023-06-22T02:06:37;100516.25;;;21.62;75.60
78643;BME280;67954;47.618;17.606;2023-06-22T02:07:17;100512.25;;;21.64;75.43
78643;BME280;67954;47.618;17.606;2023-06-22T02:07:56;100505.09;;;21.63;76.10
78643;BME280;67954;47.618;17.606;2023-06-22T02:08:36;100505.72;;;21.59;75.53
78643;BME280;67954;47.618;17.606;2023-06-22T02:09:12;100501.50;;;21.56;76.08
78643;BME280;67954;47.618;17.606;2023-06-22T02:09:47;100503.00;;;21.59;75.78
78643;BME280;67954;47.618;17.606;2023-06-22T02:10:22;100513.94;;;21.59;75.94
78643;BME280;67954;47.618;17.606;2023-06-22T02:10:55;100513.72;;;21.60;75.40
78643;BME280;67954;47.618;17.606;2023-06-22T02:11:30;100512.03;;;21.59;75.70
78643;BME280;67954;47.618;17.606;2023-06-22T02:12:05;100513.72;;;21.60;75.78
78643;BME280;67954;47.618;17.606;2023-06-22T02:12:37;100518.34;;;21.60;75.49
78643;BME280;67954;47.618;17.606;2023-06-22T02:13:10;100511.84;;;21.54;75.92
78643;BME280;67954;47.618;17.606;2023-06-22T02:13:43;100508.69;;;21.51;75.23
78643;BME280;67954;47.618;17.606;2023-06-22T02:14:16;100510.81;;;21.42;76.42
78643;BME280;67954;47.618;17.606;2023-06-22T02:14:48;100508.47;;;21.46;76.07
78643;BME280;67954;47.618;17.606;2023-06-22T02:15:20;100503.84;;;21.46;76.27
78643;BME280;67954;47.618;17.606;2023-06-22T02:15:51;100511.00;;;21.47;76.09
78643;BME280;67954;47.618;17.606;2023-06-22T02:16:23;100512.06;;;21.53;75.81
78643;BME280;67954;47.618;17.606;2023-06-22T02:16:55;100505.28;;;21.55;76.13
78643;BME280;67954;47.618;17.606;2023-06-22T02:17:29;100514.16;;;21.51;76.46
78643;BME280;67954;47.618;17.606;2023-06-22T02:18:03;100509.31;;;21.53;76.37
78643;BME280;67954;47.618;17.606;2023-06-22T02:18:35;100511.44;;;21.51;76.09
78643;BME280;67954;47.618;17.606;2023-06-22T02:19:06;100504.47;;;21.48;75.78
78643;BME280;67954;47.618;17.606;2023-06-22T02:19:41;100509.31;;;21.46;75.93
78643;BME280;67954;47.618;17.606;2023-06-22T02:20:13;100510.38;;;21.45;75.84
78643;BME280;67954;47.618;17.606;2023-06-22T02:20:44;100507.00;;;21.43;75.91
78643;BME280;67954;47.618;17.606;2023-06-22T02:21:15;100515.00;;;21.45;76.52
78643;BME280;67954;47.618;17.606;2023-06-22T02:21:46;100510.16;;;21.47;76.15
78643;BME280;67954;47.618;17.606;2023-06-22T02:22:17;100517.94;;;21.50;76.36
78643;BME280;67954;47.618;17.606;2023-06-22T02:22:48;100517.72;;;21.51;75.65
78643;BME280;67954;47.618;17.606;2023-06-22T02:23:19;100511.00;;;21.47;75.68
78643;BME280;67954;47.618;17.606;2023-06-22T02:23:51;100514.16;;;21.44;76.97
78643;BME280;67954;47.618;17.606;2023-06-22T02:24:21;100518.38;;;21.40;76.10
78643;BME280;67954;47.618;17.606;2023-06-22T02:24:54;100513.97;;;21.39;76.85
78643;BME280;67954;47.618;17.606;2023-06-22T02:25:25;100521.13;;;21.40;76.02
78643;BME280;67954;47.618;17.606;2023-06-22T02:25:56;100519.81;;;21.43;76.18
78643;BME280;67954;47.618;17.606;2023-06-22T02:26:27;100519.63;;;21.44;76.66
78643;BME280;67954;47.618;17.606;2023-06-22T02:27:00;100515.19;;;21.43;76.01
78643;BME280;67954;47.618;17.606;2023-06-22T02:27:31;100512.91;;;21.40;76.36
78643;BME280;67954;47.618;17.606;2023-06-22T02:28:03;100512.50;;;21.36;76.90
78643;BME280;67954;47.618;17.606;2023-06-22T02:28:35;100511.66;;;21.36;76.30
78643;BME280;67954;47.618;17.606;2023-06-22T02:29:05;100513.75;;;21.34;76.87
78643;BME280;67954;47.618;17.606;2023-06-22T02:29:37;100511.22;;;21.32;76.69
78643;BME280;67954;47.618;17.606;2023-06-22T02:30:10;100510.81;;;21.35;76.79
78643;BME280;67954;47.618;17.606;2023-06-22T02:30:41;100510.19;;;21.40;76.31
78643;BME280;67954;47.618;17.606;2023-06-22T02:31:12;100521.53;;;21.37;76.82
78643;BME280;67954;47.618;17.606;2023-06-22T02:31:44;100523.22;;;21.38;77.20
78643;BME280;67954;47.618;17.606;2023-06-22T02:32:14;100512.91;;;21.33;76.52
78643;BME280;67954;47.618;17.606;2023-06-22T02:32:47;100511.44;;;21.31;77.14
78643;BME280;67954;47.618;17.606;2023-06-22T02:33:19;100520.91;;;21.28;77.24
78643;BME280;67954;47.618;17.606;2023-06-22T02:33:50;100517.75;;;21.25;77.43
78643;BME280;67954;47.618;17.606;2023-06-22T02:34:22;100524.06;;;21.25;77.14
78643;BME280;67954;47.618;17.606;2023-06-22T02:34:53;100524.69;;;21.27;76.47
78643;BME280;67954;47.618;17.606;2023-06-22T02:35:25;100521.75;;;21.29;76.37
78643;BME280;67954;47.618;17.606;2023-06-22T02:35:56;100514.59;;;21.21;77.44
78643;BME280;67954;47.618;17.606;2023-06-22T02:36:27;100517.13;;;21.23;77.25
78643;BME280;67954;47.618;17.606;2023-06-22T02:37:01;100516.06;;;21.24;76.75
78643;BME280;67954;47.618;17.606;2023-06-22T02:37:33;100512.06;;;21.20;77.25
78643;BME280;67954;47.618;17.606;2023-06-22T02:38:04;100511.41;;;21.18;77.25
78643;BME280;67954;47.618;17.606;2023-06-22T02:38:36;100513.56;;;21.22;77.49
78643;BME280;67954;47.618;17.606;2023-06-22T02:39:06;100495.69;;;21.20;77.33
78643;BME280;67954;47.618;17.606;2023-06-22T02:39:38;100505.56;;;21.21;77.10
78643;BME280;67954;47.618;17.606;2023-06-22T02:40:10;100504.50;;;21.22;76.88
78643;BME280;67954;47.618;17.606;2023-06-22T02:40:40;100504.91;;;21.19;77.43
78643;BME280;67954;47.618;17.606;2023-06-22T02:41:12;100511.22;;;21.19;78.00
78643;BME280;67954;47.618;17.606;2023-06-22T02:41:44;100506.59;;;21.20;77.85
78643;BME280;67954;47.618;17.606;2023-06-22T02:42:15;100519.00;;;21.22;76.85
78643;BME280;67954;47.618;17.606;2023-06-22T02:42:51;100512.09;;;21.26;77.18
78643;BME280;67954;47.618;17.606;2023-06-22T02:43:21;100508.28;;;21.21;77.16
78643;BME280;67954;47.618;17.606;2023-06-22T02:43:52;100510.19;;;21.20;77.37
78643;BME280;67954;47.618;17.606;2023-06-22T02:44:24;100509.13;;;21.21;77.00
78643;BME280;67954;47.618;17.606;2023-06-22T02:44:56;100508.28;;;21.21;76.80
78643;BME280;67954;47.618;17.606;2023-06-22T02:45:27;100505.34;;;21.22;76.80
78643;BME280;67954;47.618;17.606;2023-06-22T02:45:59;100508.66;;;21.18;77.04
78643;BME280;67954;47.618;17.606;2023-06-22T02:46:29;100506.78;;;21.18;77.17
78643;BME280;67954;47.618;17.606;2023-06-22T02:47:00;100507.00;;;21.17;77.79
78643;BME280;67954;47.618;17.606;2023-06-22T02:47:32;100503.19;;;21.18;77.58
78643;BME280;67954;47.618;17.606;2023-06-22T02:48:03;100502.38;;;21.17;77.32
78643;BME280;67954;47.618;17.606;2023-06-22T02:48:35;100497.75;;;21.18;77.09
78643;BME280;67954;47.618;17.606;2023-06-22T02:49:06;100509.13;;;21.21;77.61
78643;BME280;67954;47.618;17.606;2023-06-22T02:49:37;100508.28;;;21.21;77.68
78643;BME280;67954;47.618;17.606;2023-06-22T02:50:09;100512.44;;;21.17;77.14
78643;BME280;67954;47.618;17.606;2023-06-22T02:50:41;100507.84;;;21.11;77.91
78643;BME280;67954;47.618;17.606;2023-06-22T02:51:11;100508.91;;;21.10;77.55